This is the latest recevied weather packets stored in our database for station/object GW1599. If no packets are shown the sender has not sent any weather packets the latest 10 day(s).
| Time | Temp. | Humidity | Pressure | Rain* | Wind** | Luminosity | Snow |
|---|---|---|---|---|---|---|---|
| 1777807091 | 0° C | 92% | 1021.6 hPa | 0 mm | - | - | - |
| 1777804936 | 0° C | 91% | 1021.3 hPa | 0 mm | - | - | - |
| 1777802774 | 0° C | 90% | 1020.9 hPa | 0 mm | - | - | - |
| 1777798814 | 0° C | 88% | 1020.9 hPa | 0 mm | - | - | - |
| 1777797760 | 0.56° C | 88% | 1020.9 hPa | 0 mm | - | - | - |
| 1777797038 | 0.56° C | 87% | 1020.6 hPa | 0 mm | - | - | - |
| 1777796691 | 0.56° C | 87% | 1020.6 hPa | 0 mm | - | - | - |
| 1777791983 | 1.67° C | 85% | 1020.3 hPa | 0 mm | - | - | - |
| 1777789092 | 2.78° C | 84% | 1020.3 hPa | 0 mm | - | - | - |
| 1777786957 | 3.89° C | 82% | 1019.9 hPa | 0 mm | - | - | - |
| 1777786583 | 3.89° C | 82% | 1019.9 hPa | 0 mm | - | - | - |
| 1777786251 | 3.89° C | 81% | 1019.9 hPa | 0 mm | - | - | - |
| 1777785535 | 4.44° C | 81% | 1020.3 hPa | 0 mm | - | - | - |
| 1777783725 | 5° C | 81% | 1019.9 hPa | 0 mm | - | - | - |
| 1777783362 | 5° C | 81% | 1019.9 hPa | 0 mm | - | - | - |
| 1777782283 | 5° C | 82% | 1019.6 hPa | 0 mm | - | - | - |
| 1777781903 | 5.56° C | 82% | 1019.6 hPa | 0 mm | - | - | - |
| 1777781183 | 5.56° C | 81% | 1019.6 hPa | 0 mm | - | - | - |
| 1777780492 | 5.56° C | 80% | 1019.6 hPa | 0 mm | - | - | - |
| 1777779736 | 5.56° C | 79% | 1019.6 hPa | 0 mm | - | - | - |
| 1777777224 | 6.11° C | 75% | 1019.6 hPa | 0 mm | - | - | - |
| 1777775778 | 6.67° C | 73% | 1019.3 hPa | 0 mm | - | - | - |
| 1777771814 | 7.78° C | 65% | 1018.6 hPa | 0 mm | - | - | - |
| 1777769323 | 8.89° C | 58% | 1017.9 hPa | 0 mm | - | - | - |
| 1777767495 | 10° C | 54% | 1017.6 hPa | 0 mm | - | - | - |
* Rain since midnight (hover to see other rain measurements)
** Current wind speed in m/s (hover to see current wind gust speed)